createdAt,value
2023-05-22T00:01:30.287Z,13.10
2023-05-22T00:03:57.304Z,13.10
2023-05-22T00:06:24.563Z,13.10
2023-05-22T00:08:51.527Z,13.10
2023-05-22T00:11:18.555Z,13.10
2023-05-22T00:13:45.619Z,13.20
2023-05-22T00:16:12.569Z,13.10
2023-05-22T00:18:42.244Z,13.10
2023-05-22T00:21:10.843Z,13.20
2023-05-22T00:23:37.854Z,13.20
2023-05-22T00:26:04.934Z,13.20
2023-05-22T00:28:33.045Z,13.20
2023-05-22T00:31:00.082Z,13.20
2023-05-22T00:33:27.119Z,13.30
2023-05-22T00:35:54.085Z,13.20
2023-05-22T00:38:35.807Z,13.20
2023-05-22T00:41:05.081Z,13.20
2023-05-22T00:43:33.185Z,13.20
2023-05-22T00:46:00.535Z,13.20
2023-05-22T00:48:27.703Z,13.20
2023-05-22T00:50:56.934Z,13.20
2023-05-22T00:53:25.851Z,13.20
2023-05-22T00:55:54.740Z,13.20
2023-05-22T00:58:22.020Z,13.20
2023-05-22T01:00:49.172Z,13.20
2023-05-22T01:03:17.869Z,13.20
2023-05-22T01:05:45.328Z,13.20
2023-05-22T01:08:12.412Z,13.20
2023-05-22T01:10:41.193Z,13.30
2023-05-22T01:13:39.071Z,13.30
2023-05-22T01:16:12.555Z,13.30
2023-05-22T01:19:01.292Z,13.20
2023-05-22T01:21:56.646Z,13.20
2023-05-22T01:24:32.169Z,13.20
2023-05-22T01:27:42.248Z,13.20
2023-05-22T01:30:42.782Z,13.20
2023-05-22T01:33:13.936Z,13.20
2023-05-22T01:35:45.468Z,13.20
2023-05-22T01:38:13.141Z,13.20
2023-05-22T01:40:41.005Z,13.20
2023-05-22T01:43:08.701Z,13.20
2023-05-22T01:45:35.924Z,13.20
2023-05-22T01:48:02.970Z,13.10
2023-05-22T01:50:30.178Z,13.20
2023-05-22T01:53:28.789Z,13.20
2023-05-22T01:56:06.675Z,13.20
2023-05-22T01:58:47.392Z,13.20
2023-05-22T02:01:15.969Z,13.20
2023-05-22T02:03:43.398Z,13.20
2023-05-22T02:06:14.286Z,13.20
2023-05-22T02:08:42.733Z,13.10
2023-05-22T02:11:11.308Z,13.10
2023-05-22T02:13:38.583Z,13.10
2023-05-22T02:16:07.268Z,13.10
2023-05-22T02:18:35.504Z,13.10
2023-05-22T02:21:03.363Z,13.20
2023-05-22T02:23:30.459Z,13.20
2023-05-22T02:25:57.659Z,13.20
2023-05-22T02:28:24.652Z,13.20
2023-05-22T02:30:51.737Z,13.20
2023-05-22T02:33:19.001Z,13.20
2023-05-22T02:35:46.326Z,13.20
2023-05-22T02:38:13.513Z,13.20
2023-05-22T02:40:40.990Z,13.20
2023-05-22T02:43:08.268Z,13.20
2023-05-22T02:45:35.289Z,13.20
2023-05-22T02:48:03.642Z,13.20
2023-05-22T02:50:30.879Z,13.30
2023-05-22T02:52:57.839Z,13.20
2023-05-22T02:55:24.846Z,13.30
2023-05-22T02:57:52.166Z,13.20
2023-05-22T03:00:20.068Z,13.20
2023-05-22T03:02:48.115Z,13.20
2023-05-22T03:05:17.677Z,13.20
2023-05-22T03:07:48.137Z,13.20
2023-05-22T03:10:15.804Z,13.30
2023-05-22T03:12:42.944Z,13.30
2023-05-22T03:15:11.219Z,13.30
2023-05-22T03:17:38.190Z,13.30
2023-05-22T03:20:06.808Z,13.30
2023-05-22T03:22:33.765Z,13.30
2023-05-22T03:25:00.752Z,13.30
2023-05-22T03:27:27.759Z,13.30
2023-05-22T03:29:54.781Z,13.20
2023-05-22T03:32:21.728Z,13.20
2023-05-22T03:34:48.783Z,13.20
2023-05-22T03:37:15.752Z,13.20
2023-05-22T03:39:42.689Z,13.20
2023-05-22T03:42:09.652Z,13.20
2023-05-22T03:44:36.563Z,13.20
2023-05-22T03:47:03.795Z,13.20
2023-05-22T03:49:30.760Z,13.20
2023-05-22T03:51:57.670Z,13.20
2023-05-22T03:54:24.639Z,13.20
2023-05-22T03:56:51.759Z,13.20
2023-05-22T03:59:18.686Z,13.20
2023-05-22T04:01:46.732Z,13.20
2023-05-22T04:04:13.884Z,13.20
2023-05-22T04:06:43.722Z,13.30
2023-05-22T04:09:12.170Z,13.30
2023-05-22T04:11:40.436Z,13.30
2023-05-22T04:14:07.554Z,13.30
2023-05-22T04:16:35.077Z,13.20
2023-05-22T04:19:03.423Z,13.20
2023-05-22T04:21:34.430Z,13.20
2023-05-22T04:24:09.516Z,13.20
2023-05-22T04:26:37.211Z,13.20
2023-05-22T04:29:04.718Z,13.20
2023-05-22T04:31:32.579Z,13.30
2023-05-22T04:34:00.257Z,13.30
2023-05-22T04:36:27.986Z,13.30
2023-05-22T04:38:55.629Z,13.20
2023-05-22T04:41:26.361Z,13.20
2023-05-22T04:43:54.551Z,13.20
2023-05-22T04:46:21.748Z,13.20
2023-05-22T04:48:48.896Z,13.20
2023-05-22T04:51:15.926Z,13.20
2023-05-22T04:53:43.006Z,13.30
2023-05-22T04:56:10.046Z,13.30
2023-05-22T04:58:38.389Z,13.30
2023-05-22T05:01:05.492Z,13.40
2023-05-22T05:03:32.566Z,13.40
2023-05-22T05:06:00.513Z,13.40
2023-05-22T05:08:27.489Z,13.40
2023-05-22T05:10:54.428Z,13.50
2023-05-22T05:13:22.637Z,13.50
2023-05-22T05:15:49.734Z,13.50
2023-05-22T05:18:17.182Z,13.50
2023-05-22T05:20:44.240Z,13.50
2023-05-22T05:23:11.364Z,13.50
2023-05-22T05:25:38.775Z,13.60
2023-05-22T05:28:10.813Z,13.60
2023-05-22T05:30:41.370Z,13.60
2023-05-22T05:33:08.558Z,13.70
2023-05-22T05:35:35.784Z,13.70
2023-05-22T05:38:02.836Z,13.80
2023-05-22T05:40:29.798Z,13.80
2023-05-22T05:42:57.054Z,13.90
2023-05-22T05:45:24.045Z,13.90
2023-05-22T05:47:51.021Z,13.90
2023-05-22T05:50:18.186Z,14.00
2023-05-22T05:52:45.192Z,14.00
2023-05-22T05:55:12.227Z,14.00
2023-05-22T05:57:39.416Z,14.00
2023-05-22T06:00:09.992Z,13.90
2023-05-22T06:02:38.180Z,13.90
2023-05-22T06:05:05.865Z,13.80
2023-05-22T06:07:32.846Z,13.80
2023-05-22T06:09:59.950Z,13.80
2023-05-22T06:12:26.957Z,13.70
2023-05-22T06:14:53.943Z,13.70
2023-05-22T06:17:20.960Z,13.70
2023-05-22T06:19:47.880Z,13.80
2023-05-22T06:22:15.097Z,13.90
2023-05-22T06:24:42.072Z,13.80
2023-05-22T06:27:09.052Z,13.80
2023-05-22T06:29:36.366Z,13.80
2023-05-22T06:32:03.367Z,13.80
2023-05-22T06:34:30.340Z,13.70
2023-05-22T06:36:57.316Z,13.60
2023-05-22T06:39:24.269Z,13.70
2023-05-22T06:41:51.184Z,13.80
2023-05-22T06:44:18.303Z,13.90
2023-05-22T06:46:45.253Z,13.90
2023-05-22T06:49:12.803Z,13.90
2023-05-22T06:51:39.812Z,13.90
2023-05-22T06:54:08.102Z,13.90
2023-05-22T06:56:35.093Z,13.90
2023-05-22T06:59:02.062Z,14.00
2023-05-22T07:01:29.453Z,14.00
2023-05-22T07:04:01.391Z,14.10
2023-05-22T07:06:28.687Z,14.10
2023-05-22T07:08:56.101Z,14.10
2023-05-22T07:11:23.016Z,14.20
2023-05-22T07:13:50.005Z,14.20
2023-05-22T07:16:17.146Z,14.10
2023-05-22T07:18:46.121Z,14.10
2023-05-22T07:21:13.227Z,14.10
2023-05-22T07:23:40.142Z,14.10
2023-05-22T07:26:08.277Z,14.00
2023-05-22T07:28:35.479Z,14.00
2023-05-22T07:31:02.416Z,14.00
2023-05-22T07:33:29.490Z,14.10
2023-05-22T07:35:56.729Z,14.10
2023-05-22T07:38:23.685Z,14.20
2023-05-22T07:40:50.630Z,14.20
2023-05-22T07:43:17.818Z,14.30
2023-05-22T07:45:44.899Z,14.40
2023-05-22T07:48:11.975Z,14.40
2023-05-22T07:50:39.115Z,14.50
2023-05-22T07:53:06.499Z,14.50
2023-05-22T07:55:33.464Z,14.50
2023-05-22T07:58:00.454Z,14.60
2023-05-22T08:00:27.781Z,14.60
2023-05-22T08:02:54.780Z,14.60
2023-05-22T08:05:21.853Z,14.60
2023-05-22T08:07:48.901Z,14.60
2023-05-22T08:10:17.325Z,14.70
2023-05-22T08:12:44.784Z,14.90
2023-05-22T08:15:11.993Z,14.80
2023-05-22T08:17:39.392Z,14.70
2023-05-22T08:20:07.737Z,14.70
2023-05-22T08:22:38.683Z,14.80
2023-05-22T08:25:05.909Z,14.80
2023-05-22T08:27:32.980Z,14.90
2023-05-22T08:29:59.913Z,15.00
2023-05-22T08:32:28.156Z,15.10
2023-05-22T08:34:56.225Z,15.20
2023-05-22T08:37:23.124Z,15.20
2023-05-22T08:39:50.052Z,15.20
2023-05-22T08:42:17.024Z,15.30
2023-05-22T08:44:44.024Z,15.40
2023-05-22T08:47:13.934Z,15.40
2023-05-22T08:49:41.146Z,15.30
2023-05-22T08:52:16.983Z,15.30
2023-05-22T08:54:53.254Z,15.50
2023-05-22T08:57:21.010Z,15.60
2023-05-22T08:59:48.502Z,15.70
2023-05-22T09:02:17.391Z,15.80
2023-05-22T09:04:44.358Z,15.90
2023-05-22T09:07:11.396Z,16.10
2023-05-22T09:09:39.464Z,16.10
2023-05-22T09:12:09.337Z,16.20
2023-05-22T09:14:43.141Z,16.20
2023-05-22T09:17:15.136Z,16.30
2023-05-22T09:19:46.226Z,16.40
2023-05-22T09:22:13.967Z,16.40
2023-05-22T09:24:42.874Z,16.30
2023-05-22T09:27:11.815Z,16.30
2023-05-22T09:29:52.563Z,16.30
2023-05-22T09:32:20.225Z,16.30
2023-05-22T09:34:47.329Z,16.40
2023-05-22T09:37:15.755Z,16.60
2023-05-22T09:39:47.774Z,16.80
2023-05-22T09:42:18.073Z,16.90
2023-05-22T09:44:51.941Z,17.10
2023-05-22T09:47:18.922Z,17.20
2023-05-22T09:49:46.427Z,17.30
2023-05-22T09:52:13.439Z,17.40
2023-05-22T09:54:55.403Z,17.30
2023-05-22T09:57:25.258Z,17.30
2023-05-22T09:59:58.110Z,17.40
2023-05-22T10:02:28.952Z,17.40
2023-05-22T10:04:57.085Z,17.50
2023-05-22T10:07:38.504Z,17.60
2023-05-22T10:10:10.174Z,17.70
2023-05-22T10:12:51.308Z,17.80
2023-05-22T10:15:19.027Z,17.80
2023-05-22T10:17:47.160Z,17.90
2023-05-22T10:20:16.389Z,18.00
2023-05-22T10:22:44.102Z,17.90
2023-05-22T10:25:11.726Z,17.80
2023-05-22T10:27:40.095Z,17.70
2023-05-22T10:30:33.783Z,17.80
2023-05-22T10:33:27.814Z,17.70
2023-05-22T10:35:55.334Z,17.70
2023-05-22T10:38:51.179Z,17.70
2023-05-22T10:41:18.639Z,17.90
2023-05-22T10:43:49.691Z,18.00
2023-05-22T10:46:18.018Z,18.00
2023-05-22T10:48:47.347Z,18.00
2023-05-22T10:51:18.938Z,18.10
2023-05-22T10:53:58.240Z,18.10
2023-05-22T10:56:37.066Z,18.10
2023-05-22T10:59:07.580Z,18.00
2023-05-22T11:01:38.330Z,17.80
2023-05-22T11:04:06.877Z,17.90
2023-05-22T11:06:52.121Z,17.90
2023-05-22T11:09:43.527Z,18.00
2023-05-22T11:12:25.192Z,18.10
2023-05-22T11:15:06.137Z,18.10
2023-05-22T11:17:41.684Z,18.10
2023-05-22T11:20:22.891Z,18.10
2023-05-22T11:23:07.980Z,18.10
2023-05-22T11:25:37.485Z,18.10
2023-05-22T11:28:06.430Z,18.10
2023-05-22T11:30:35.098Z,18.10
2023-05-22T11:33:02.707Z,18.00
2023-05-22T11:35:29.870Z,18.00
2023-05-22T11:37:57.109Z,17.90
2023-05-22T11:40:27.419Z,17.90
2023-05-22T11:42:54.508Z,18.00
2023-05-22T11:45:21.827Z,17.90
2023-05-22T11:47:49.685Z,18.00
2023-05-22T11:50:25.848Z,18.00
2023-05-22T11:52:59.417Z,18.00
2023-05-22T11:55:26.524Z,18.20
2023-05-22T11:57:56.547Z,18.30
2023-05-22T12:00:23.699Z,18.30
2023-05-22T12:02:50.989Z,18.30
2023-05-22T12:05:21.796Z,18.30
2023-05-22T12:07:48.838Z,18.40
2023-05-22T12:10:15.929Z,18.60
2023-05-22T12:12:44.009Z,18.60
2023-05-22T12:15:11.421Z,18.60
2023-05-22T12:17:38.615Z,18.50
2023-05-22T12:20:07.269Z,18.50
2023-05-22T12:22:34.275Z,18.50
2023-05-22T12:25:01.203Z,18.70
2023-05-22T12:27:33.169Z,18.70
2023-05-22T12:30:11.180Z,18.60
2023-05-22T12:32:40.767Z,18.60
2023-05-22T12:35:15.561Z,18.60
2023-05-22T12:37:52.164Z,18.60
2023-05-22T12:40:19.771Z,18.60
2023-05-22T12:42:48.636Z,18.70
2023-05-22T12:45:17.651Z,18.70
2023-05-22T12:47:44.727Z,18.80
2023-05-22T12:50:11.934Z,18.80
2023-05-22T12:52:38.863Z,19.00
2023-05-22T12:55:06.623Z,19.20
2023-05-22T12:57:33.550Z,19.30
2023-05-22T13:00:00.452Z,19.30
2023-05-22T13:02:27.627Z,19.10
2023-05-22T13:04:54.616Z,18.90
2023-05-22T13:07:21.561Z,18.70
2023-05-22T13:09:48.504Z,18.50
2023-05-22T13:12:15.517Z,18.30
2023-05-22T13:14:42.561Z,18.20
2023-05-22T13:17:10.037Z,18.10
2023-05-22T13:19:37.147Z,18.00
2023-05-22T13:22:04.882Z,18.10
2023-05-22T13:24:31.837Z,18.00
2023-05-22T13:26:59.155Z,18.00
2023-05-22T13:29:26.070Z,18.00
2023-05-22T13:31:53.079Z,17.90
2023-05-22T13:34:20.187Z,17.90
2023-05-22T13:36:47.323Z,17.80
2023-05-22T13:39:14.274Z,17.80
2023-05-22T13:41:41.233Z,17.80
2023-05-22T13:44:08.178Z,17.90
2023-05-22T13:46:35.214Z,17.70
2023-05-22T13:49:02.226Z,17.60
2023-05-22T13:51:29.172Z,17.50
2023-05-22T13:53:56.114Z,17.50
2023-05-22T13:56:23.792Z,17.40
2023-05-22T13:58:50.700Z,17.30
2023-05-22T14:01:17.818Z,17.20
2023-05-22T14:03:44.795Z,17.30
2023-05-22T14:06:11.824Z,17.60
2023-05-22T14:08:38.873Z,17.80
2023-05-22T14:11:06.141Z,17.90
2023-05-22T14:13:33.211Z,18.00
2023-05-22T14:16:00.158Z,18.00
2023-05-22T14:18:27.280Z,18.10
2023-05-22T14:20:54.519Z,18.30
2023-05-22T14:23:21.466Z,18.30
2023-05-22T14:25:48.406Z,18.30
2023-05-22T14:28:15.892Z,18.30
2023-05-22T14:30:43.442Z,18.40
2023-05-22T14:33:11.346Z,18.50
2023-05-22T14:35:38.476Z,18.60
2023-05-22T14:38:05.647Z,18.60
2023-05-22T14:40:32.548Z,18.60
2023-05-22T14:42:59.506Z,18.50
2023-05-22T14:45:26.488Z,18.30
2023-05-22T14:47:53.513Z,18.20
2023-05-22T14:50:21.049Z,18.30
2023-05-22T14:52:51.604Z,18.20
2023-05-22T14:55:18.844Z,18.30
2023-05-22T14:57:46.135Z,18.30
2023-05-22T15:00:14.211Z,18.40
2023-05-22T15:02:41.385Z,18.30
2023-05-22T15:05:09.622Z,18.20
2023-05-22T15:10:07.957Z,18.30
2023-05-22T15:12:34.993Z,18.40
2023-05-22T15:15:02.214Z,18.40
2023-05-22T15:17:29.194Z,18.40
2023-05-22T15:19:56.340Z,18.50
2023-05-22T15:22:23.299Z,18.50
2023-05-22T15:25:05.286Z,18.30
2023-05-22T15:27:33.426Z,18.30
2023-05-22T15:30:00.657Z,18.30
2023-05-22T15:32:27.750Z,18.40
2023-05-22T15:34:54.738Z,18.60
2023-05-22T15:37:21.761Z,18.70
2023-05-22T15:39:49.024Z,18.50
2023-05-22T15:42:16.003Z,18.60
2023-05-22T15:44:43.066Z,18.70
2023-05-22T15:47:10.044Z,18.60
2023-05-22T15:49:37.015Z,18.50
2023-05-22T15:52:03.949Z,18.50
2023-05-22T15:54:30.865Z,18.30
2023-05-22T15:56:57.982Z,18.30
2023-05-22T15:59:24.878Z,18.20
2023-05-22T16:01:51.802Z,18.10
2023-05-22T16:04:18.829Z,18.10
2023-05-22T16:06:46.058Z,18.10
2023-05-22T16:09:13.053Z,17.90
2023-05-22T16:11:40.055Z,17.80
2023-05-22T16:14:07.022Z,17.70
2023-05-22T16:16:34.068Z,17.70
2023-05-22T16:19:01.099Z,17.60
2023-05-22T16:21:28.077Z,17.70
2023-05-22T16:23:55.017Z,17.70
2023-05-22T16:26:22.746Z,17.60
2023-05-22T16:28:49.693Z,17.60
2023-05-22T16:31:19.347Z,17.50
2023-05-22T16:33:46.597Z,17.40
2023-05-22T16:36:13.565Z,17.30
2023-05-22T16:38:40.665Z,17.30
2023-05-22T16:41:07.664Z,17.20
2023-05-22T16:43:34.584Z,17.20
2023-05-22T16:46:01.553Z,17.20
2023-05-22T16:48:28.549Z,17.10
2023-05-22T16:50:55.507Z,17.10
2023-05-22T16:53:22.541Z,17.10
2023-05-22T16:55:49.530Z,17.10
2023-05-22T16:58:16.487Z,17.10
2023-05-22T17:00:43.782Z,17.10
2023-05-22T17:03:12.010Z,17.10
2023-05-22T17:05:39.470Z,17.00
2023-05-22T17:08:06.930Z,17.00
2023-05-22T17:10:34.014Z,17.10
2023-05-22T17:13:00.985Z,17.10
2023-05-22T17:15:27.943Z,17.10
2023-05-22T17:17:55.052Z,17.10
2023-05-22T17:20:23.065Z,17.10
2023-05-22T17:22:50.213Z,17.10
2023-05-22T17:25:17.254Z,17.10
2023-05-22T17:27:44.716Z,17.20
2023-05-22T17:30:11.929Z,17.20
2023-05-22T17:32:38.987Z,17.20
2023-05-22T17:35:06.955Z,17.20
2023-05-22T17:37:34.119Z,17.30
2023-05-22T17:40:01.152Z,17.40
2023-05-22T17:42:28.136Z,17.40
2023-05-22T17:44:55.138Z,17.40
2023-05-22T17:47:22.205Z,17.50
2023-05-22T17:49:49.239Z,17.40
2023-05-22T17:52:16.321Z,17.30
2023-05-22T17:54:43.314Z,17.30
2023-05-22T17:57:13.139Z,17.30
2023-05-22T17:59:40.574Z,17.40
2023-05-22T18:02:09.498Z,17.30
2023-05-22T18:04:36.912Z,17.20
2023-05-22T18:07:03.931Z,17.20
2023-05-22T18:09:30.944Z,17.20
2023-05-22T18:12:00.796Z,17.20
2023-05-22T18:14:27.766Z,17.20
2023-05-22T18:16:55.052Z,17.10
2023-05-22T18:19:21.980Z,17.10
2023-05-22T18:21:48.968Z,17.10
2023-05-22T18:24:15.962Z,17.00
2023-05-22T18:26:42.899Z,17.00
2023-05-22T18:29:10.636Z,17.00
2023-05-22T18:31:37.692Z,17.00
2023-05-22T18:34:04.657Z,17.00
2023-05-22T18:36:31.845Z,17.00
2023-05-22T18:38:58.833Z,17.00
2023-05-22T18:41:26.480Z,17.00
2023-05-22T18:43:53.419Z,17.00
2023-05-22T18:46:20.409Z,17.00
2023-05-22T18:48:47.441Z,16.90
2023-05-22T18:51:16.514Z,16.90
2023-05-22T18:53:43.598Z,16.80
2023-05-22T18:56:10.613Z,16.80
2023-05-22T18:58:41.382Z,16.70
2023-05-22T19:01:08.774Z,16.60
2023-05-22T19:03:36.040Z,16.50
2023-05-22T19:06:03.973Z,16.40
2023-05-22T19:08:33.694Z,16.40
2023-05-22T19:11:01.325Z,16.30
2023-05-22T19:13:29.203Z,16.10
2023-05-22T19:15:57.365Z,16.00
2023-05-22T19:18:24.717Z,15.90
2023-05-22T19:20:51.692Z,15.80
2023-05-22T19:23:19.179Z,15.70
2023-05-22T19:25:46.161Z,15.60
2023-05-22T19:28:13.144Z,15.50
2023-05-22T19:30:40.464Z,15.40
2023-05-22T19:33:09.057Z,15.30
2023-05-22T19:35:36.283Z,15.30
2023-05-22T19:38:03.568Z,15.20
2023-05-22T19:40:30.513Z,15.10
2023-05-22T19:42:57.918Z,15.00
2023-05-22T19:45:26.097Z,14.90
2023-05-22T19:47:53.315Z,14.80
2023-05-22T19:50:20.308Z,14.70
2023-05-22T19:52:48.326Z,14.60
2023-05-22T19:55:15.743Z,14.60
2023-05-22T19:57:44.528Z,14.60
2023-05-22T20:00:12.887Z,14.60
2023-05-22T20:02:40.304Z,14.60
2023-05-22T20:05:13.484Z,14.60
2023-05-22T20:07:44.605Z,14.50
2023-05-22T20:10:11.869Z,14.50
2023-05-22T20:12:39.363Z,14.50
2023-05-22T20:15:07.064Z,14.40
2023-05-22T20:17:34.523Z,14.40
2023-05-22T20:20:01.608Z,14.40
2023-05-22T20:22:28.553Z,14.40
2023-05-22T20:24:55.837Z,14.30
2023-05-22T20:27:22.829Z,14.30
2023-05-22T20:29:50.286Z,14.30
2023-05-22T20:32:17.418Z,14.30
2023-05-22T20:34:45.533Z,14.30
2023-05-22T20:37:13.527Z,14.30
2023-05-22T20:39:44.275Z,14.30
2023-05-22T20:42:13.047Z,14.30
2023-05-22T20:44:41.295Z,14.30
2023-05-22T20:47:09.657Z,14.30
2023-05-22T20:49:38.491Z,14.30
2023-05-22T20:52:05.811Z,14.40
2023-05-22T20:54:34.746Z,14.30
2023-05-22T20:57:02.077Z,14.30
2023-05-22T20:59:29.306Z,14.30
2023-05-22T21:01:57.027Z,14.20
2023-05-22T21:04:24.504Z,14.20
2023-05-22T21:06:51.580Z,14.20
2023-05-22T21:09:18.559Z,14.10
2023-05-22T21:11:45.607Z,14.10
2023-05-22T21:14:12.651Z,14.10
2023-05-22T21:16:40.231Z,14.10
2023-05-22T21:19:07.533Z,14.00
2023-05-22T21:21:36.292Z,14.00
2023-05-22T21:24:03.491Z,13.90
2023-05-22T21:26:30.587Z,13.90
2023-05-22T21:28:57.673Z,13.90
2023-05-22T21:31:24.692Z,13.90
2023-05-22T21:33:51.742Z,13.90
2023-05-22T21:36:18.670Z,13.90
2023-05-22T21:38:46.202Z,13.90
2023-05-22T21:41:13.633Z,13.90
2023-05-22T21:43:40.752Z,13.90
2023-05-22T21:46:08.271Z,13.90
2023-05-22T21:48:35.456Z,13.80
2023-05-22T21:51:02.724Z,13.80
2023-05-22T21:53:29.682Z,13.80
2023-05-22T21:55:56.760Z,13.70
2023-05-22T21:58:23.682Z,13.60
2023-05-22T22:00:50.916Z,13.60
2023-05-22T22:03:18.346Z,13.60
2023-05-22T22:05:45.488Z,13.50
2023-05-22T22:08:12.393Z,13.50
2023-05-22T22:10:39.750Z,13.40
2023-05-22T22:13:06.855Z,13.50
2023-05-22T22:15:33.923Z,13.40
2023-05-22T22:18:02.339Z,13.40
2023-05-22T22:20:44.361Z,13.40
2023-05-22T22:23:12.635Z,13.40
2023-05-22T22:25:39.685Z,13.40
2023-05-22T22:28:07.407Z,13.30
2023-05-22T22:30:35.340Z,13.30
2023-05-22T22:33:02.753Z,13.30
2023-05-22T22:35:29.776Z,13.40
2023-05-22T22:37:57.158Z,13.40
2023-05-22T22:40:26.071Z,13.30
2023-05-22T22:42:53.790Z,13.30
2023-05-22T22:45:20.921Z,13.30
2023-05-22T22:47:48.264Z,13.30
2023-05-22T22:50:16.009Z,13.20
2023-05-22T22:52:45.578Z,13.20
2023-05-22T22:55:13.476Z,13.20
2023-05-22T22:57:43.323Z,13.20
2023-05-22T23:00:13.466Z,13.10
2023-05-22T23:02:41.718Z,13.10
2023-05-22T23:05:09.287Z,13.10
2023-05-22T23:07:36.397Z,13.10
2023-05-22T23:10:03.615Z,13.00
2023-05-22T23:12:35.076Z,13.00
2023-05-22T23:15:02.981Z,13.00
2023-05-22T23:17:30.169Z,13.10
2023-05-22T23:19:57.316Z,13.00
2023-05-22T23:22:24.661Z,13.00
2023-05-22T23:24:51.674Z,13.00
2023-05-22T23:27:18.724Z,13.00
2023-05-22T23:29:45.843Z,13.00
2023-05-22T23:32:14.695Z,13.00
2023-05-22T23:34:42.452Z,12.90
2023-05-22T23:37:09.676Z,12.90
2023-05-22T23:39:36.744Z,12.90
2023-05-22T23:42:03.978Z,12.90
2023-05-22T23:44:31.702Z,12.90
2023-05-22T23:46:59.173Z,12.90
2023-05-22T23:49:26.441Z,13.00
2023-05-22T23:51:53.751Z,12.90
2023-05-22T23:54:20.812Z,13.00
2023-05-22T23:56:47.805Z,13.00
2023-05-22T23:59:15.710Z,12.90
